sensor_id;sensor_type;location;lat;lon;timestamp;pressure;altitude;pressure_sealevel;temperature;humidity
26043;BME280;13818;52.156;5.382;2023-05-21T00:00:32;101659.19;;;16.31;100.00
26043;BME280;13818;52.156;5.382;2023-05-21T00:02:58;101662.84;;;16.30;100.00
26043;BME280;13818;52.156;5.382;2023-05-21T00:05:25;101668.22;;;16.30;100.00
26043;BME280;13818;52.156;5.382;2023-05-21T00:07:51;101662.06;;;16.27;100.00
26043;BME280;13818;52.156;5.382;2023-05-21T00:10:19;101657.81;;;16.23;100.00
26043;BME280;13818;52.156;5.382;2023-05-21T00:12:47;101658.25;;;16.32;100.00
26043;BME280;13818;52.156;5.382;2023-05-21T00:15:13;101656.59;;;16.29;100.00
26043;BME280;13818;52.156;5.382;2023-05-21T00:17:40;101666.41;;;16.30;100.00
26043;BME280;13818;52.156;5.382;2023-05-21T00:20:07;101659.66;;;16.23;100.00
26043;BME280;13818;52.156;5.382;2023-05-21T00:22:34;101657.13;;;16.20;100.00
26043;BME280;13818;52.156;5.382;2023-05-21T00:25:01;101662.34;;;16.23;100.00
26043;BME280;13818;52.156;5.382;2023-05-21T00:27:28;101653.56;;;16.19;100.00
26043;BME280;13818;52.156;5.382;2023-05-21T00:30:02;101652.72;;;16.19;100.00
26043;BME280;13818;52.156;5.382;2023-05-21T00:32:29;101650.97;;;16.18;100.00
26043;BME280;13818;52.156;5.382;2023-05-21T00:34:55;101652.28;;;16.10;100.00
26043;BME280;13818;52.156;5.382;2023-05-21T00:37:22;101645.59;;;16.18;100.00
26043;BME280;13818;52.156;5.382;2023-05-21T00:39:48;101642.38;;;16.27;100.00
26043;BME280;13818;52.156;5.382;2023-05-21T00:42:15;101644.56;;;16.20;100.00
26043;BME280;13818;52.156;5.382;2023-05-21T00:44:42;101640.38;;;16.15;100.00
26043;BME280;13818;52.156;5.382;2023-05-21T00:47:11;101639.00;;;16.07;100.00
26043;BME280;13818;52.156;5.382;2023-05-21T00:49:38;101635.34;;;16.08;100.00
26043;BME280;13818;52.156;5.382;2023-05-21T00:52:05;101628.66;;;16.00;100.00
26043;BME280;13818;52.156;5.382;2023-05-21T00:54:39;101635.03;;;15.99;100.00
26043;BME280;13818;52.156;5.382;2023-05-21T00:57:06;101637.44;;;16.03;100.00
26043;BME280;13818;52.156;5.382;2023-05-21T00:59:34;101643.41;;;16.24;100.00
26043;BME280;13818;52.156;5.382;2023-05-21T01:02:00;101634.66;;;16.21;100.00
26043;BME280;13818;52.156;5.382;2023-05-21T01:04:31;101635.78;;;16.17;100.00
26043;BME280;13818;52.156;5.382;2023-05-21T01:06:58;101625.19;;;16.14;100.00
26043;BME280;13818;52.156;5.382;2023-05-21T01:09:25;101624.34;;;16.13;100.00
26043;BME280;13818;52.156;5.382;2023-05-21T01:11:52;101623.19;;;16.17;100.00
26043;BME280;13818;52.156;5.382;2023-05-21T01:14:22;101624.69;;;16.07;100.00
26043;BME280;13818;52.156;5.382;2023-05-21T01:16:50;101630.09;;;16.37;100.00
26043;BME280;13818;52.156;5.382;2023-05-21T01:19:19;101625.63;;;16.22;100.00
26043;BME280;13818;52.156;5.382;2023-05-21T01:21:49;101618.25;;;16.09;100.00
26043;BME280;13818;52.156;5.382;2023-05-21T01:24:18;101619.47;;;16.20;100.00
26043;BME280;13818;52.156;5.382;2023-05-21T01:26:45;101619.50;;;16.04;100.00
26043;BME280;13818;52.156;5.382;2023-05-21T01:29:12;101614.72;;;15.93;100.00
26043;BME280;13818;52.156;5.382;2023-05-21T01:31:47;101612.97;;;15.92;100.00
26043;BME280;13818;52.156;5.382;2023-05-21T01:34:23;101614.56;;;15.96;100.00
26043;BME280;13818;52.156;5.382;2023-05-21T01:36:56;101608.28;;;15.96;100.00
26043;BME280;13818;52.156;5.382;2023-05-21T01:39:31;101607.25;;;15.98;100.00
26043;BME280;13818;52.156;5.382;2023-05-21T01:42:01;101607.34;;;15.97;100.00
26043;BME280;13818;52.156;5.382;2023-05-21T01:44:29;101612.38;;;15.87;100.00
26043;BME280;13818;52.156;5.382;2023-05-21T01:46:58;101614.59;;;15.78;100.00
26043;BME280;13818;52.156;5.382;2023-05-21T01:49:25;101604.72;;;15.79;100.00
26043;BME280;13818;52.156;5.382;2023-05-21T01:51:52;101614.28;;;15.85;100.00
26043;BME280;13818;52.156;5.382;2023-05-21T01:54:19;101608.03;;;15.84;100.00
26043;BME280;13818;52.156;5.382;2023-05-21T01:56:47;101613.25;;;15.87;100.00
26043;BME280;13818;52.156;5.382;2023-05-21T01:59:14;101614.47;;;15.98;100.00
26043;BME280;13818;52.156;5.382;2023-05-21T02:01:42;101617.03;;;15.83;100.00
26043;BME280;13818;52.156;5.382;2023-05-21T02:04:09;101610.06;;;15.79;100.00
26043;BME280;13818;52.156;5.382;2023-05-21T02:06:36;101596.72;;;15.77;100.00
26043;BME280;13818;52.156;5.382;2023-05-21T02:09:04;101611.00;;;15.62;100.00
26043;BME280;13818;52.156;5.382;2023-05-21T02:11:30;101606.34;;;15.66;100.00
26043;BME280;13818;52.156;5.382;2023-05-21T02:13:58;101598.63;;;15.75;100.00
26043;BME280;13818;52.156;5.382;2023-05-21T02:16:25;101594.03;;;15.77;100.00
26043;BME280;13818;52.156;5.382;2023-05-21T02:18:52;101608.69;;;15.72;100.00
26043;BME280;13818;52.156;5.382;2023-05-21T02:21:21;101603.13;;;15.59;100.00
26043;BME280;13818;52.156;5.382;2023-05-21T02:23:48;101605.22;;;15.70;100.00
26043;BME280;13818;52.156;5.382;2023-05-21T02:26:15;101595.69;;;15.80;100.00
26043;BME280;13818;52.156;5.382;2023-05-21T02:28:42;101591.84;;;15.68;100.00
26043;BME280;13818;52.156;5.382;2023-05-21T02:31:10;101610.63;;;15.86;100.00
26043;BME280;13818;52.156;5.382;2023-05-21T02:33:38;101600.56;;;15.89;100.00
26043;BME280;13818;52.156;5.382;2023-05-21T02:36:06;101607.59;;;15.92;100.00
26043;BME280;13818;52.156;5.382;2023-05-21T02:38:37;101606.28;;;15.83;100.00
26043;BME280;13818;52.156;5.382;2023-05-21T02:41:05;101607.19;;;15.84;100.00
26043;BME280;13818;52.156;5.382;2023-05-21T02:43:32;101601.22;;;15.77;100.00
26043;BME280;13818;52.156;5.382;2023-05-21T02:45:58;101602.44;;;15.71;100.00
26043;BME280;13818;52.156;5.382;2023-05-21T02:48:26;101605.72;;;15.44;100.00
26043;BME280;13818;52.156;5.382;2023-05-21T02:50:53;101602.84;;;15.48;100.00
26043;BME280;13818;52.156;5.382;2023-05-21T02:53:19;101596.91;;;15.58;100.00
26043;BME280;13818;52.156;5.382;2023-05-21T02:55:46;101604.16;;;15.56;100.00
26043;BME280;13818;52.156;5.382;2023-05-21T02:58:13;101604.16;;;15.56;100.00
26043;BME280;13818;52.156;5.382;2023-05-21T03:00:39;101602.06;;;15.45;100.00
26043;BME280;13818;52.156;5.382;2023-05-21T03:03:06;101608.56;;;15.41;100.00
26043;BME280;13818;52.156;5.382;2023-05-21T03:05:34;101602.84;;;15.48;100.00
26043;BME280;13818;52.156;5.382;2023-05-21T03:08:01;101599.56;;;15.42;100.00
26043;BME280;13818;52.156;5.382;2023-05-21T03:10:27;101611.84;;;15.31;100.00
26043;BME280;13818;52.156;5.382;2023-05-21T03:12:54;101592.25;;;15.28;100.00
26043;BME280;13818;52.156;5.382;2023-05-21T03:15:21;101607.41;;;15.29;100.00
26043;BME280;13818;52.156;5.382;2023-05-21T03:17:48;101602.59;;;15.52;100.00
26043;BME280;13818;52.156;5.382;2023-05-21T03:20:15;101593.94;;;15.47;100.00
26043;BME280;13818;52.156;5.382;2023-05-21T03:22:44;101605.03;;;15.57;100.00
26043;BME280;13818;52.156;5.382;2023-05-21T03:25:12;101597.78;;;15.75;100.00
26043;BME280;13818;52.156;5.382;2023-05-21T03:27:38;101592.72;;;15.53;100.00
26043;BME280;13818;52.156;5.382;2023-05-21T03:30:06;101584.53;;;16.04;100.00
26043;BME280;13818;52.156;5.382;2023-05-21T03:32:33;101592.00;;;15.99;100.00
26043;BME280;13818;52.156;5.382;2023-05-21T03:35:02;101587.78;;;15.77;100.00
26043;BME280;13818;52.156;5.382;2023-05-21T03:37:30;101587.19;;;15.72;100.00
26043;BME280;13818;52.156;5.382;2023-05-21T03:39:58;101593.66;;;15.52;100.00
26043;BME280;13818;52.156;5.382;2023-05-21T03:42:24;101578.63;;;15.32;100.00
26043;BME280;13818;52.156;5.382;2023-05-21T03:44:51;101578.56;;;15.33;100.00
26043;BME280;13818;52.156;5.382;2023-05-21T03:47:17;101584.00;;;15.32;100.00
26043;BME280;13818;52.156;5.382;2023-05-21T03:49:44;101587.16;;;15.40;100.00
26043;BME280;13818;52.156;5.382;2023-05-21T03:52:10;101581.97;;;15.53;100.00
26043;BME280;13818;52.156;5.382;2023-05-21T03:54:37;101577.44;;;15.37;100.00
26043;BME280;13818;52.156;5.382;2023-05-21T03:57:05;101579.84;;;15.26;100.00
26043;BME280;13818;52.156;5.382;2023-05-21T03:59:31;101585.03;;;15.29;100.00
26043;BME280;13818;52.156;5.382;2023-05-21T04:01:58;101577.72;;;15.15;100.00
26043;BME280;13818;52.156;5.382;2023-05-21T04:04:24;101574.91;;;15.18;100.00
26043;BME280;13818;52.156;5.382;2023-05-21T04:06:53;101585.34;;;15.07;100.00
26043;BME280;13818;52.156;5.382;2023-05-21T04:09:20;101592.50;;;15.06;100.00
26043;BME280;13818;52.156;5.382;2023-05-21T04:11:47;101574.38;;;15.27;100.00
26043;BME280;13818;52.156;5.382;2023-05-21T04:14:14;101576.66;;;15.19;100.00
26043;BME280;13818;52.156;5.382;2023-05-21T04:16:41;101586.88;;;15.28;100.00
26043;BME280;13818;52.156;5.382;2023-05-21T04:19:09;101582.41;;;15.45;100.00
26043;BME280;13818;52.156;5.382;2023-05-21T04:21:35;101585.69;;;15.17;100.00
26043;BME280;13818;52.156;5.382;2023-05-21T04:24:02;101589.50;;;15.12;100.00
26043;BME280;13818;52.156;5.382;2023-05-21T04:26:29;101583.81;;;15.19;100.00
26043;BME280;13818;52.156;5.382;2023-05-21T04:28:58;101585.25;;;15.08;100.00
26043;BME280;13818;52.156;5.382;2023-05-21T04:31:29;101588.28;;;15.02;100.00
26043;BME280;13818;52.156;5.382;2023-05-21T04:33:56;101594.88;;;15.12;100.00
26043;BME280;13818;52.156;5.382;2023-05-21T04:36:23;101582.16;;;15.50;100.00
26043;BME280;13818;52.156;5.382;2023-05-21T04:38:53;101591.03;;;15.34;100.00
26043;BME280;13818;52.156;5.382;2023-05-21T04:41:20;101596.28;;;15.20;100.00
26043;BME280;13818;52.156;5.382;2023-05-21T04:43:52;101596.38;;;15.18;100.00
26043;BME280;13818;52.156;5.382;2023-05-21T04:46:19;101589.22;;;15.35;100.00
26043;BME280;13818;52.156;5.382;2023-05-21T04:48:52;101601.34;;;15.26;100.00
26043;BME280;13818;52.156;5.382;2023-05-21T04:51:19;101594.72;;;15.16;100.00
26043;BME280;13818;52.156;5.382;2023-05-21T04:53:46;101593.94;;;15.13;100.00
26043;BME280;13818;52.156;5.382;2023-05-21T04:56:15;101595.44;;;15.19;100.00
26043;BME280;13818;52.156;5.382;2023-05-21T04:58:43;101594.22;;;15.25;100.00
26043;BME280;13818;52.156;5.382;2023-05-21T05:01:10;101590.44;;;15.11;100.00
26043;BME280;13818;52.156;5.382;2023-05-21T05:03:37;101601.09;;;15.31;100.00
26043;BME280;13818;52.156;5.382;2023-05-21T05:06:05;101595.25;;;15.72;100.00
26043;BME280;13818;52.156;5.382;2023-05-21T05:08:33;101595.44;;;15.35;100.00
26043;BME280;13818;52.156;5.382;2023-05-21T05:11:00;101598.88;;;15.21;100.00
26043;BME280;13818;52.156;5.382;2023-05-21T05:13:27;101608.00;;;15.01;100.00
26043;BME280;13818;52.156;5.382;2023-05-21T05:15:56;101608.56;;;15.08;100.00
26043;BME280;13818;52.156;5.382;2023-05-21T05:18:25;101606.25;;;15.18;100.00
26043;BME280;13818;52.156;5.382;2023-05-21T05:20:52;101601.66;;;15.20;100.00
26043;BME280;13818;52.156;5.382;2023-05-21T05:23:20;101592.53;;;15.40;100.00
26043;BME280;13818;52.156;5.382;2023-05-21T05:25:47;101592.00;;;15.33;100.00
26043;BME280;13818;52.156;5.382;2023-05-21T05:28:13;101595.31;;;15.38;100.00
26043;BME280;13818;52.156;5.382;2023-05-21T05:30:40;101593.25;;;15.75;100.00
26043;BME280;13818;52.156;5.382;2023-05-21T05:33:07;101590.31;;;15.64;100.00
26043;BME280;13818;52.156;5.382;2023-05-21T05:35:34;101592.56;;;15.56;100.00
26043;BME280;13818;52.156;5.382;2023-05-21T05:38:00;101589.97;;;15.70;100.00
26043;BME280;13818;52.156;5.382;2023-05-21T05:40:28;101593.75;;;15.50;100.00
26043;BME280;13818;52.156;5.382;2023-05-21T05:42:55;101611.16;;;15.43;100.00
26043;BME280;13818;52.156;5.382;2023-05-21T05:45:22;101588.56;;;15.79;100.00
26043;BME280;13818;52.156;5.382;2023-05-21T05:47:50;101591.78;;;15.70;100.00
26043;BME280;13818;52.156;5.382;2023-05-21T05:50:17;101597.84;;;15.73;100.00
26043;BME280;13818;52.156;5.382;2023-05-21T05:52:44;101597.94;;;15.56;100.00
26043;BME280;13818;52.156;5.382;2023-05-21T05:55:10;101594.13;;;15.60;100.00
26043;BME280;13818;52.156;5.382;2023-05-21T05:57:38;101597.19;;;15.36;100.00
26043;BME280;13818;52.156;5.382;2023-05-21T06:00:06;101586.31;;;15.55;100.00
26043;BME280;13818;52.156;5.382;2023-05-21T06:02:34;101590.97;;;15.52;100.00
26043;BME280;13818;52.156;5.382;2023-05-21T06:05:01;101592.22;;;15.78;100.00
26043;BME280;13818;52.156;5.382;2023-05-21T06:07:28;101592.94;;;15.82;100.00
26043;BME280;13818;52.156;5.382;2023-05-21T06:09:54;101587.19;;;16.20;100.00
26043;BME280;13818;52.156;5.382;2023-05-21T06:12:21;101588.69;;;16.09;100.00
26043;BME280;13818;52.156;5.382;2023-05-21T06:14:49;101585.53;;;16.33;100.00
26043;BME280;13818;52.156;5.382;2023-05-21T06:17:16;101578.13;;;16.06;100.00
26043;BME280;13818;52.156;5.382;2023-05-21T06:19:42;101589.34;;;16.29;100.00
26043;BME280;13818;52.156;5.382;2023-05-21T06:22:12;101582.81;;;16.49;100.00
26043;BME280;13818;52.156;5.382;2023-05-21T06:24:39;101578.34;;;16.64;100.00
26043;BME280;13818;52.156;5.382;2023-05-21T06:27:07;101578.34;;;16.79;100.00
26043;BME280;13818;52.156;5.382;2023-05-21T06:29:34;101583.38;;;16.85;100.00
26043;BME280;13818;52.156;5.382;2023-05-21T06:32:02;101578.88;;;17.43;100.00
26043;BME280;13818;52.156;5.382;2023-05-21T06:34:28;101592.09;;;17.48;100.00
26043;BME280;13818;52.156;5.382;2023-05-21T06:36:55;101576.06;;;17.73;100.00
26043;BME280;13818;52.156;5.382;2023-05-21T06:39:22;101578.31;;;18.09;100.00
26043;BME280;13818;52.156;5.382;2023-05-21T06:41:49;101574.16;;;18.30;100.00
26043;BME280;13818;52.156;5.382;2023-05-21T06:44:15;101589.25;;;18.20;100.00
26043;BME280;13818;52.156;5.382;2023-05-21T06:46:43;101566.16;;;17.74;100.00
26043;BME280;13818;52.156;5.382;2023-05-21T06:49:12;101579.69;;;17.87;100.00
26043;BME280;13818;52.156;5.382;2023-05-21T06:51:39;101575.66;;;17.94;100.00
26043;BME280;13818;52.156;5.382;2023-05-21T06:54:06;101582.66;;;18.24;100.00
26043;BME280;13818;52.156;5.382;2023-05-21T06:56:33;101580.47;;;18.44;100.00
26043;BME280;13818;52.156;5.382;2023-05-21T06:58:59;101583.03;;;18.32;100.00
26043;BME280;13818;52.156;5.382;2023-05-21T07:01:26;101580.44;;;18.31;100.00
26043;BME280;13818;52.156;5.382;2023-05-21T07:03:54;101582.22;;;18.17;100.00
26043;BME280;13818;52.156;5.382;2023-05-21T07:06:22;101568.06;;;18.14;100.00
26043;BME280;13818;52.156;5.382;2023-05-21T07:08:48;101569.19;;;17.97;100.00
26043;BME280;13818;52.156;5.382;2023-05-21T07:11:16;101579.53;;;17.76;100.00
26043;BME280;13818;52.156;5.382;2023-05-21T07:13:42;101580.09;;;17.81;100.00
26043;BME280;13818;52.156;5.382;2023-05-21T07:16:09;101576.78;;;17.90;100.00
26043;BME280;13818;52.156;5.382;2023-05-21T07:18:35;101573.00;;;18.07;100.00
26043;BME280;13818;52.156;5.382;2023-05-21T07:21:03;101576.53;;;18.22;100.00
26043;BME280;13818;52.156;5.382;2023-05-21T07:23:31;101572.09;;;17.79;100.00
26043;BME280;13818;52.156;5.382;2023-05-21T07:25:59;101585.53;;;17.52;100.00
26043;BME280;13818;52.156;5.382;2023-05-21T07:28:25;101577.06;;;17.58;100.00
26043;BME280;13818;52.156;5.382;2023-05-21T07:30:53;101585.31;;;18.11;100.00
26043;BME280;13818;52.156;5.382;2023-05-21T07:33:19;101575.47;;;18.37;100.00
26043;BME280;13818;52.156;5.382;2023-05-21T07:35:47;101584.16;;;18.56;100.00
26043;BME280;13818;52.156;5.382;2023-05-21T07:38:13;101579.00;;;18.65;100.00
26043;BME280;13818;52.156;5.382;2023-05-21T07:40:41;101581.25;;;18.59;100.00
26043;BME280;13818;52.156;5.382;2023-05-21T07:43:08;101571.97;;;18.63;100.00
26043;BME280;13818;52.156;5.382;2023-05-21T07:45:34;101583.56;;;18.78;100.00
26043;BME280;13818;52.156;5.382;2023-05-21T07:48:01;101576.25;;;18.93;100.00
26043;BME280;13818;52.156;5.382;2023-05-21T07:50:28;101587.63;;;18.58;100.00
26043;BME280;13818;52.156;5.382;2023-05-21T07:52:55;101573.47;;;18.54;100.00
26043;BME280;13818;52.156;5.382;2023-05-21T07:55:22;101583.47;;;18.39;100.00
26043;BME280;13818;52.156;5.382;2023-05-21T07:57:49;101581.38;;;18.57;100.00
26043;BME280;13818;52.156;5.382;2023-05-21T08:00:16;101572.59;;;18.94;100.00
26043;BME280;13818;52.156;5.382;2023-05-21T08:02:44;101574.31;;;19.21;100.00
26043;BME280;13818;52.156;5.382;2023-05-21T08:05:11;101572.09;;;18.61;100.00
26043;BME280;13818;52.156;5.382;2023-05-21T08:07:38;101569.06;;;19.56;100.00
26043;BME280;13818;52.156;5.382;2023-05-21T08:10:06;101570.13;;;19.54;100.00
26043;BME280;13818;52.156;5.382;2023-05-21T08:12:33;101575.94;;;19.86;100.00
26043;BME280;13818;52.156;5.382;2023-05-21T08:15:01;101553.19;;;20.13;100.00
26043;BME280;13818;52.156;5.382;2023-05-21T08:17:27;101553.88;;;20.28;100.00
26043;BME280;13818;52.156;5.382;2023-05-21T08:19:54;101563.19;;;20.48;100.00
26043;BME280;13818;52.156;5.382;2023-05-21T08:22:21;101572.09;;;20.61;100.00
26043;BME280;13818;52.156;5.382;2023-05-21T08:24:48;101559.88;;;20.20;100.00
26043;BME280;13818;52.156;5.382;2023-05-21T08:27:14;101559.91;;;20.67;100.00
26043;BME280;13818;52.156;5.382;2023-05-21T08:29:42;101558.78;;;20.70;100.00
26043;BME280;13818;52.156;5.382;2023-05-21T08:32:10;101551.91;;;20.65;100.00
26043;BME280;13818;52.156;5.382;2023-05-21T08:34:36;101563.31;;;20.93;100.00
26043;BME280;13818;52.156;5.382;2023-05-21T08:37:03;101560.59;;;20.22;100.00
26043;BME280;13818;52.156;5.382;2023-05-21T08:39:30;101558.25;;;20.18;100.00
26043;BME280;13818;52.156;5.382;2023-05-21T08:42:05;101562.66;;;20.43;100.00
26043;BME280;13818;52.156;5.382;2023-05-21T08:44:36;101551.63;;;20.22;100.00
26043;BME280;13818;52.156;5.382;2023-05-21T08:47:11;101550.63;;;20.47;100.00
26043;BME280;13818;52.156;5.382;2023-05-21T08:49:41;101564.88;;;20.38;100.00
26043;BME280;13818;52.156;5.382;2023-05-21T08:52:10;101586.78;;;20.46;100.00
26043;BME280;13818;52.156;5.382;2023-05-21T08:54:37;101558.44;;;20.27;100.00
26043;BME280;13818;52.156;5.382;2023-05-21T08:57:04;101560.16;;;20.64;100.00
26043;BME280;13818;52.156;5.382;2023-05-21T08:59:31;101563.06;;;20.49;100.00
26043;BME280;13818;52.156;5.382;2023-05-21T09:01:58;101570.25;;;20.26;100.00
26043;BME280;13818;52.156;5.382;2023-05-21T09:04:27;101568.22;;;20.88;100.00
26043;BME280;13818;52.156;5.382;2023-05-21T09:06:54;101568.28;;;20.64;100.00
26043;BME280;13818;52.156;5.382;2023-05-21T09:09:26;101571.22;;;20.25;100.00
26043;BME280;13818;52.156;5.382;2023-05-21T09:11:55;101568.38;;;20.27;100.00
26043;BME280;13818;52.156;5.382;2023-05-21T09:14:22;101568.56;;;20.12;100.00
26043;BME280;13818;52.156;5.382;2023-05-21T09:16:49;101572.25;;;20.11;100.00
26043;BME280;13818;52.156;5.382;2023-05-21T09:19:19;101573.72;;;20.40;100.00
26043;BME280;13818;52.156;5.382;2023-05-21T09:21:50;101561.56;;;20.10;100.00
26043;BME280;13818;52.156;5.382;2023-05-21T09:24:20;101560.16;;;20.04;100.00
26043;BME280;13818;52.156;5.382;2023-05-21T09:26:47;101555.69;;;20.16;100.00
26043;BME280;13818;52.156;5.382;2023-05-21T09:29:13;101562.00;;;20.28;100.00
26043;BME280;13818;52.156;5.382;2023-05-21T09:31:42;101546.66;;;20.75;100.00
26043;BME280;13818;52.156;5.382;2023-05-21T09:34:10;101551.06;;;20.76;100.00
26043;BME280;13818;52.156;5.382;2023-05-21T09:36:50;101551.00;;;20.89;100.00
26043;BME280;13818;52.156;5.382;2023-05-21T09:39:26;101545.09;;;20.60;100.00
26043;BME280;13818;52.156;5.382;2023-05-21T09:41:55;101547.53;;;20.87;100.00
26043;BME280;13818;52.156;5.382;2023-05-21T09:44:23;101546.53;;;20.77;100.00
26043;BME280;13818;52.156;5.382;2023-05-21T09:46:49;101549.00;;;20.91;100.00
26043;BME280;13818;52.156;5.382;2023-05-21T09:51:55;101535.97;;;20.49;100.00
26043;BME280;13818;52.156;5.382;2023-05-21T09:54:22;101539.09;;;20.68;100.00
26043;BME280;13818;52.156;5.382;2023-05-21T09:56:50;101531.69;;;20.58;100.00
26043;BME280;13818;52.156;5.382;2023-05-21T09:59:19;101511.47;;;20.87;100.00
26043;BME280;13818;52.156;5.382;2023-05-21T10:01:46;101521.06;;;21.02;100.00
26043;BME280;13818;52.156;5.382;2023-05-21T10:04:15;101518.06;;;20.71;100.00
26043;BME280;13818;52.156;5.382;2023-05-21T10:06:43;101529.84;;;20.59;100.00
26043;BME280;13818;52.156;5.382;2023-05-21T10:09:14;101514.97;;;20.64;100.00
26043;BME280;13818;52.156;5.382;2023-05-21T10:11:43;101516.63;;;20.90;100.00
26043;BME280;13818;52.156;5.382;2023-05-21T10:14:14;101527.56;;;20.77;100.00
26043;BME280;13818;52.156;5.382;2023-05-21T10:16:41;101513.97;;;20.65;100.00
26043;BME280;13818;52.156;5.382;2023-05-21T10:19:09;101516.19;;;20.60;100.00
26043;BME280;13818;52.156;5.382;2023-05-21T10:21:36;101509.66;;;20.63;100.00
26043;BME280;13818;52.156;5.382;2023-05-21T10:24:05;101515.81;;;20.65;100.00
26043;BME280;13818;52.156;5.382;2023-05-21T10:26:34;101508.66;;;20.53;100.00
26043;BME280;13818;52.156;5.382;2023-05-21T10:29:01;101522.22;;;20.53;100.00
26043;BME280;13818;52.156;5.382;2023-05-21T10:31:28;101524.28;;;20.49;100.00
26043;BME280;13818;52.156;5.382;2023-05-21T10:33:55;101492.91;;;20.58;100.00
26043;BME280;13818;52.156;5.382;2023-05-21T10:36:22;101498.13;;;20.72;100.00
26043;BME280;13818;52.156;5.382;2023-05-21T10:38:49;101496.31;;;20.84;100.00
26043;BME280;13818;52.156;5.382;2023-05-21T10:41:17;101499.13;;;21.05;100.00
26043;BME280;13818;52.156;5.382;2023-05-21T10:43:55;101492.88;;;20.93;100.00
26043;BME280;13818;52.156;5.382;2023-05-21T10:49:37;101487.31;;;21.18;100.00
26043;BME280;13818;52.156;5.382;2023-05-21T10:52:23;101501.47;;;20.87;100.00
26043;BME280;13818;52.156;5.382;2023-05-21T10:55:10;101484.97;;;21.24;100.00
26043;BME280;13818;52.156;5.382;2023-05-21T11:01:01;101475.72;;;21.27;100.00
26043;BME280;13818;52.156;5.382;2023-05-21T11:03:30;101481.25;;;21.14;100.00
26043;BME280;13818;52.156;5.382;2023-05-21T11:05:57;101489.88;;;21.19;100.00
26043;BME280;13818;52.156;5.382;2023-05-21T11:08:25;101496.69;;;21.02;100.00
26043;BME280;13818;52.156;5.382;2023-05-21T11:10:53;101489.66;;;21.00;100.00
26043;BME280;13818;52.156;5.382;2023-05-21T11:13:23;101490.75;;;21.20;100.00
26043;BME280;13818;52.156;5.382;2023-05-21T11:16:12;101483.13;;;21.25;100.00
26043;BME280;13818;52.156;5.382;2023-05-21T11:19:04;101478.00;;;21.54;100.00
26043;BME280;13818;52.156;5.382;2023-05-21T11:21:33;101489.38;;;21.37;100.00
26043;BME280;13818;52.156;5.382;2023-05-21T11:24:01;101475.06;;;21.46;100.00
26043;BME280;13818;52.156;5.382;2023-05-21T11:26:58;101470.97;;;21.63;100.00
26043;BME280;13818;52.156;5.382;2023-05-21T11:29:37;101478.38;;;21.72;100.00
26043;BME280;13818;52.156;5.382;2023-05-21T11:32:08;101468.25;;;21.52;100.00
26043;BME280;13818;52.156;5.382;2023-05-21T11:34:39;101468.63;;;21.70;100.00
26043;BME280;13818;52.156;5.382;2023-05-21T11:37:26;101461.72;;;21.54;100.00
26043;BME280;13818;52.156;5.382;2023-05-21T11:39:55;101452.16;;;21.39;100.00
26043;BME280;13818;52.156;5.382;2023-05-21T11:42:32;101453.38;;;21.57;100.00
26043;BME280;13818;52.156;5.382;2023-05-21T11:45:01;101451.06;;;21.30;100.00
26043;BME280;13818;52.156;5.382;2023-05-21T11:47:30;101447.47;;;21.41;100.00
26043;BME280;13818;52.156;5.382;2023-05-21T11:50:00;101446.38;;;21.32;100.00
26043;BME280;13818;52.156;5.382;2023-05-21T11:52:28;101450.81;;;21.22;100.00
26043;BME280;13818;52.156;5.382;2023-05-21T11:54:55;101451.69;;;21.34;100.00
26043;BME280;13818;52.156;5.382;2023-05-21T11:57:26;101444.50;;;21.55;100.00
26043;BME280;13818;52.156;5.382;2023-05-21T11:59:55;101437.78;;;21.71;100.00
26043;BME280;13818;52.156;5.382;2023-05-21T12:02:24;101468.44;;;21.39;100.00
26043;BME280;13818;52.156;5.382;2023-05-21T12:04:53;101455.81;;;21.60;100.00
26043;BME280;13818;52.156;5.382;2023-05-21T12:07:20;101440.16;;;21.53;100.00
26043;BME280;13818;52.156;5.382;2023-05-21T12:09:48;101433.41;;;21.58;100.00
26043;BME280;13818;52.156;5.382;2023-05-21T12:12:16;101418.78;;;21.71;100.00
26043;BME280;13818;52.156;5.382;2023-05-21T12:14:43;101427.38;;;21.43;100.00
26043;BME280;13818;52.156;5.382;2023-05-21T12:17:11;101436.84;;;21.49;100.00
26043;BME280;13818;52.156;5.382;2023-05-21T12:19:39;101419.09;;;21.56;100.00
26043;BME280;13818;52.156;5.382;2023-05-21T12:22:08;101413.19;;;21.51;100.00
26043;BME280;13818;52.156;5.382;2023-05-21T12:24:36;101425.28;;;21.58;100.00
26043;BME280;13818;52.156;5.382;2023-05-21T12:27:04;101427.66;;;21.73;100.00
26043;BME280;13818;52.156;5.382;2023-05-21T12:29:34;101407.59;;;21.64;100.00
26043;BME280;13818;52.156;5.382;2023-05-21T12:32:02;101417.25;;;21.45;100.00
26043;BME280;13818;52.156;5.382;2023-05-21T12:34:39;101411.31;;;21.52;100.00
26043;BME280;13818;52.156;5.382;2023-05-21T12:37:10;101417.19;;;21.68;100.00
26043;BME280;13818;52.156;5.382;2023-05-21T12:39:38;101416.41;;;21.56;100.00
26043;BME280;13818;52.156;5.382;2023-05-21T12:42:05;101424.41;;;21.58;100.00
26043;BME280;13818;52.156;5.382;2023-05-21T12:44:31;101419.81;;;21.70;100.00
26043;BME280;13818;52.156;5.382;2023-05-21T12:46:58;101411.38;;;21.73;100.00
26043;BME280;13818;52.156;5.382;2023-05-21T12:49:35;101413.78;;;21.87;100.00
26043;BME280;13818;52.156;5.382;2023-05-21T12:52:08;101402.94;;;22.08;100.00
26043;BME280;13818;52.156;5.382;2023-05-21T12:54:37;101402.34;;;22.05;100.00